sensor_id;sensor_type;location;lat;lon;timestamp;P1;durP1;ratioP1;P2;durP2;ratioP2
18997;SDS011;9632;51.018;4.284;2023-02-10T00:01:13;45.35;;;20.30;;
18997;SDS011;9632;51.018;4.284;2023-02-10T00:03:47;44.63;;;21.23;;
18997;SDS011;9632;51.018;4.284;2023-02-10T00:06:13;42.58;;;21.05;;
18997;SDS011;9632;51.018;4.284;2023-02-10T00:08:41;42.63;;;20.77;;
18997;SDS011;9632;51.018;4.284;2023-02-10T00:11:10;44.20;;;20.92;;
18997;SDS011;9632;51.018;4.284;2023-02-10T00:13:36;40.85;;;20.52;;
18997;SDS011;9632;51.018;4.284;2023-02-10T00:16:04;40.13;;;19.30;;
18997;SDS011;9632;51.018;4.284;2023-02-10T00:18:31;42.65;;;20.20;;
18997;SDS011;9632;51.018;4.284;2023-02-10T00:20:57;42.08;;;19.52;;
18997;SDS011;9632;51.018;4.284;2023-02-10T00:23:34;36.97;;;18.73;;
18997;SDS011;9632;51.018;4.284;2023-02-10T00:26:03;40.13;;;19.48;;
18997;SDS011;9632;51.018;4.284;2023-02-10T00:28:31;41.40;;;19.15;;
18997;SDS011;9632;51.018;4.284;2023-02-10T00:30:57;40.38;;;19.50;;
18997;SDS011;9632;51.018;4.284;2023-02-10T00:33:23;40.33;;;19.05;;
18997;SDS011;9632;51.018;4.284;2023-02-10T00:35:49;36.00;;;19.05;;
18997;SDS011;9632;51.018;4.284;2023-02-10T00:38:14;39.22;;;19.23;;
18997;SDS011;9632;51.018;4.284;2023-02-10T00:40:40;39.67;;;19.10;;
18997;SDS011;9632;51.018;4.284;2023-02-10T00:43:06;40.67;;;19.87;;
18997;SDS011;9632;51.018;4.284;2023-02-10T00:45:31;40.95;;;19.33;;
18997;SDS011;9632;51.018;4.284;2023-02-10T00:47:57;40.00;;;18.88;;
18997;SDS011;9632;51.018;4.284;2023-02-10T00:50:22;39.38;;;18.73;;
18997;SDS011;9632;51.018;4.284;2023-02-10T00:52:48;38.50;;;18.43;;
18997;SDS011;9632;51.018;4.284;2023-02-10T00:55:14;40.17;;;19.67;;
18997;SDS011;9632;51.018;4.284;2023-02-10T00:57:39;35.45;;;18.25;;
18997;SDS011;9632;51.018;4.284;2023-02-10T01:00:05;37.55;;;18.80;;
18997;SDS011;9632;51.018;4.284;2023-02-10T01:02:31;39.77;;;19.33;;
18997;SDS011;9632;51.018;4.284;2023-02-10T01:04:57;40.70;;;18.75;;
18997;SDS011;9632;51.018;4.284;2023-02-10T01:07:24;37.53;;;18.57;;
18997;SDS011;9632;51.018;4.284;2023-02-10T01:09:50;38.47;;;18.80;;
18997;SDS011;9632;51.018;4.284;2023-02-10T01:12:15;41.65;;;19.55;;
18997;SDS011;9632;51.018;4.284;2023-02-10T01:14:41;36.57;;;18.50;;
18997;SDS011;9632;51.018;4.284;2023-02-10T01:17:07;44.97;;;20.03;;
18997;SDS011;9632;51.018;4.284;2023-02-10T01:19:32;40.37;;;19.60;;
18997;SDS011;9632;51.018;4.284;2023-02-10T01:21:58;43.97;;;19.97;;
18997;SDS011;9632;51.018;4.284;2023-02-10T01:24:24;40.20;;;19.70;;
18997;SDS011;9632;51.018;4.284;2023-02-10T01:26:49;38.70;;;19.87;;
18997;SDS011;9632;51.018;4.284;2023-02-10T01:29:15;41.97;;;20.00;;
18997;SDS011;9632;51.018;4.284;2023-02-10T01:31:41;39.13;;;19.30;;
18997;SDS011;9632;51.018;4.284;2023-02-10T01:34:06;37.77;;;19.03;;
18997;SDS011;9632;51.018;4.284;2023-02-10T01:36:32;41.20;;;20.37;;
18997;SDS011;9632;51.018;4.284;2023-02-10T01:38:58;42.53;;;20.73;;
18997;SDS011;9632;51.018;4.284;2023-02-10T01:41:24;43.50;;;21.57;;
18997;SDS011;9632;51.018;4.284;2023-02-10T01:46:22;42.33;;;20.00;;
18997;SDS011;9632;51.018;4.284;2023-02-10T01:48:48;45.00;;;22.03;;
18997;SDS011;9632;51.018;4.284;2023-02-10T01:51:14;50.60;;;22.17;;
18997;SDS011;9632;51.018;4.284;2023-02-10T01:53:42;44.27;;;20.60;;
18997;SDS011;9632;51.018;4.284;2023-02-10T01:56:08;43.33;;;21.27;;
18997;SDS011;9632;51.018;4.284;2023-02-10T01:58:36;52.33;;;23.47;;
18997;SDS011;9632;51.018;4.284;2023-02-10T02:01:03;51.33;;;23.23;;
18997;SDS011;9632;51.018;4.284;2023-02-10T02:03:28;51.53;;;23.80;;
18997;SDS011;9632;51.018;4.284;2023-02-10T02:05:54;44.97;;;22.30;;
18997;SDS011;9632;51.018;4.284;2023-02-10T02:08:24;50.93;;;23.57;;
18997;SDS011;9632;51.018;4.284;2023-02-10T02:19:56;51.87;;;24.87;;
18997;SDS011;9632;51.018;4.284;2023-02-10T02:33:40;50.27;;;23.37;;
18997;SDS011;9632;51.018;4.284;2023-02-10T02:36:16;51.10;;;23.13;;
18997;SDS011;9632;51.018;4.284;2023-02-10T02:38:58;55.23;;;24.83;;
18997;SDS011;9632;51.018;4.284;2023-02-10T02:41:26;53.77;;;23.53;;
18997;SDS011;9632;51.018;4.284;2023-02-10T02:43:52;53.03;;;23.83;;
18997;SDS011;9632;51.018;4.284;2023-02-10T02:54:14;48.80;;;22.90;;
18997;SDS011;9632;51.018;4.284;2023-02-10T03:01:56;52.10;;;22.27;;
18997;SDS011;9632;51.018;4.284;2023-02-10T03:04:26;48.80;;;22.07;;
18997;SDS011;9632;51.018;4.284;2023-02-10T03:06:53;46.03;;;21.37;;
18997;SDS011;9632;51.018;4.284;2023-02-10T03:09:19;47.47;;;22.17;;
18997;SDS011;9632;51.018;4.284;2023-02-10T03:11:46;44.80;;;21.83;;
18997;SDS011;9632;51.018;4.284;2023-02-10T03:14:11;43.73;;;20.80;;
18997;SDS011;9632;51.018;4.284;2023-02-10T03:16:37;53.67;;;22.23;;
18997;SDS011;9632;51.018;4.284;2023-02-10T03:19:02;61.40;;;25.47;;
18997;SDS011;9632;51.018;4.284;2023-02-10T03:21:28;54.20;;;22.90;;
18997;SDS011;9632;51.018;4.284;2023-02-10T03:23:54;58.93;;;24.73;;
18997;SDS011;9632;51.018;4.284;2023-02-10T03:26:19;55.53;;;24.50;;
18997;SDS011;9632;51.018;4.284;2023-02-10T03:28:45;55.30;;;23.37;;
18997;SDS011;9632;51.018;4.284;2023-02-10T03:31:11;58.17;;;24.23;;
18997;SDS011;9632;51.018;4.284;2023-02-10T03:33:36;58.57;;;23.90;;
18997;SDS011;9632;51.018;4.284;2023-02-10T03:36:02;55.50;;;23.67;;
18997;SDS011;9632;51.018;4.284;2023-02-10T03:38:28;56.37;;;24.17;;
18997;SDS011;9632;51.018;4.284;2023-02-10T03:40:54;58.47;;;24.73;;
18997;SDS011;9632;51.018;4.284;2023-02-10T03:43:20;58.83;;;23.70;;
18997;SDS011;9632;51.018;4.284;2023-02-10T03:45:46;58.63;;;24.37;;
18997;SDS011;9632;51.018;4.284;2023-02-10T03:48:12;63.27;;;26.13;;
18997;SDS011;9632;51.018;4.284;2023-02-10T03:50:40;69.33;;;25.87;;
18997;SDS011;9632;51.018;4.284;2023-02-10T03:53:06;63.00;;;25.63;;
18997;SDS011;9632;51.018;4.284;2023-02-10T03:55:32;61.63;;;25.33;;
18997;SDS011;9632;51.018;4.284;2023-02-10T03:57:59;65.20;;;26.13;;
18997;SDS011;9632;51.018;4.284;2023-02-10T04:00:26;62.50;;;24.13;;
18997;SDS011;9632;51.018;4.284;2023-02-10T04:02:52;58.57;;;24.17;;
18997;SDS011;9632;51.018;4.284;2023-02-10T04:05:17;56.50;;;24.17;;
18997;SDS011;9632;51.018;4.284;2023-02-10T04:07:43;61.90;;;24.53;;
18997;SDS011;9632;51.018;4.284;2023-02-10T04:10:09;56.07;;;23.97;;
18997;SDS011;9632;51.018;4.284;2023-02-10T04:12:34;60.80;;;25.00;;
18997;SDS011;9632;51.018;4.284;2023-02-10T04:15:00;60.73;;;24.83;;
18997;SDS011;9632;51.018;4.284;2023-02-10T04:17:26;62.00;;;24.83;;
18997;SDS011;9632;51.018;4.284;2023-02-10T04:19:51;60.30;;;24.47;;
18997;SDS011;9632;51.018;4.284;2023-02-10T04:22:17;57.97;;;24.33;;
18997;SDS011;9632;51.018;4.284;2023-02-10T04:24:42;65.43;;;25.87;;
18997;SDS011;9632;51.018;4.284;2023-02-10T04:27:08;63.67;;;26.17;;
18997;SDS011;9632;51.018;4.284;2023-02-10T04:29:34;70.10;;;26.80;;
18997;SDS011;9632;51.018;4.284;2023-02-10T04:32:03;70.13;;;27.40;;
18997;SDS011;9632;51.018;4.284;2023-02-10T04:34:29;65.07;;;25.83;;
18997;SDS011;9632;51.018;4.284;2023-02-10T04:36:55;69.23;;;26.13;;
18997;SDS011;9632;51.018;4.284;2023-02-10T04:39:20;67.67;;;25.37;;
18997;SDS011;9632;51.018;4.284;2023-02-10T04:41:46;65.83;;;25.57;;
18997;SDS011;9632;51.018;4.284;2023-02-10T04:44:12;62.77;;;25.70;;
18997;SDS011;9632;51.018;4.284;2023-02-10T04:46:37;65.73;;;26.93;;
18997;SDS011;9632;51.018;4.284;2023-02-10T04:49:03;67.07;;;25.57;;
18997;SDS011;9632;51.018;4.284;2023-02-10T04:51:29;67.37;;;26.37;;
18997;SDS011;9632;51.018;4.284;2023-02-10T04:53:54;68.20;;;26.57;;
18997;SDS011;9632;51.018;4.284;2023-02-10T04:56:20;66.77;;;24.50;;
18997;SDS011;9632;51.018;4.284;2023-02-10T04:58:46;64.63;;;25.37;;
18997;SDS011;9632;51.018;4.284;2023-02-10T05:01:11;64.50;;;25.77;;
18997;SDS011;9632;51.018;4.284;2023-02-10T05:03:37;63.37;;;25.60;;
18997;SDS011;9632;51.018;4.284;2023-02-10T05:06:09;62.20;;;24.50;;
18997;SDS011;9632;51.018;4.284;2023-02-10T05:08:38;64.60;;;26.00;;
18997;SDS011;9632;51.018;4.284;2023-02-10T05:11:11;66.77;;;24.77;;
18997;SDS011;9632;51.018;4.284;2023-02-10T05:13:38;67.77;;;26.13;;
18997;SDS011;9632;51.018;4.284;2023-02-10T05:16:04;71.77;;;26.63;;
18997;SDS011;9632;51.018;4.284;2023-02-10T05:18:32;67.00;;;25.43;;
18997;SDS011;9632;51.018;4.284;2023-02-10T05:20:58;64.30;;;25.33;;
18997;SDS011;9632;51.018;4.284;2023-02-10T05:23:25;67.73;;;25.63;;
18997;SDS011;9632;51.018;4.284;2023-02-10T05:25:54;68.83;;;25.93;;
18997;SDS011;9632;51.018;4.284;2023-02-10T05:28:20;82.00;;;27.43;;
18997;SDS011;9632;51.018;4.284;2023-02-10T05:30:46;68.17;;;26.47;;
18997;SDS011;9632;51.018;4.284;2023-02-10T05:33:12;68.33;;;25.03;;
18997;SDS011;9632;51.018;4.284;2023-02-10T05:35:38;63.07;;;25.47;;
18997;SDS011;9632;51.018;4.284;2023-02-10T05:38:04;70.60;;;25.53;;
18997;SDS011;9632;51.018;4.284;2023-02-10T05:40:30;68.37;;;25.50;;
18997;SDS011;9632;51.018;4.284;2023-02-10T05:42:56;65.13;;;25.03;;
18997;SDS011;9632;51.018;4.284;2023-02-10T05:45:21;62.83;;;24.47;;
18997;SDS011;9632;51.018;4.284;2023-02-10T05:47:47;61.10;;;24.50;;
18997;SDS011;9632;51.018;4.284;2023-02-10T05:50:13;68.77;;;25.07;;
18997;SDS011;9632;51.018;4.284;2023-02-10T05:52:39;68.63;;;26.70;;
18997;SDS011;9632;51.018;4.284;2023-02-10T05:55:05;65.80;;;25.80;;
18997;SDS011;9632;51.018;4.284;2023-02-10T05:57:31;71.57;;;27.00;;
18997;SDS011;9632;51.018;4.284;2023-02-10T05:59:57;77.73;;;27.30;;
18997;SDS011;9632;51.018;4.284;2023-02-10T06:02:23;74.80;;;26.77;;
18997;SDS011;9632;51.018;4.284;2023-02-10T06:04:49;74.27;;;27.33;;
18997;SDS011;9632;51.018;4.284;2023-02-10T06:07:15;69.43;;;27.73;;
18997;SDS011;9632;51.018;4.284;2023-02-10T06:09:41;71.23;;;27.63;;
18997;SDS011;9632;51.018;4.284;2023-02-10T06:12:07;74.87;;;28.60;;
18997;SDS011;9632;51.018;4.284;2023-02-10T06:14:33;73.87;;;26.67;;
18997;SDS011;9632;51.018;4.284;2023-02-10T06:17:00;73.10;;;28.00;;
18997;SDS011;9632;51.018;4.284;2023-02-10T06:19:26;73.90;;;27.40;;
18997;SDS011;9632;51.018;4.284;2023-02-10T06:21:52;62.87;;;25.13;;
18997;SDS011;9632;51.018;4.284;2023-02-10T06:24:17;71.77;;;26.47;;
18997;SDS011;9632;51.018;4.284;2023-02-10T06:26:43;76.00;;;27.33;;
18997;SDS011;9632;51.018;4.284;2023-02-10T06:29:09;74.90;;;26.27;;
18997;SDS011;9632;51.018;4.284;2023-02-10T06:31:34;65.50;;;26.27;;
18997;SDS011;9632;51.018;4.284;2023-02-10T06:34:00;71.30;;;27.00;;
18997;SDS011;9632;51.018;4.284;2023-02-10T06:36:26;73.03;;;27.53;;
18997;SDS011;9632;51.018;4.284;2023-02-10T06:38:52;72.80;;;27.47;;
18997;SDS011;9632;51.018;4.284;2023-02-10T06:41:17;75.47;;;28.80;;
18997;SDS011;9632;51.018;4.284;2023-02-10T06:43:43;75.77;;;27.70;;
18997;SDS011;9632;51.018;4.284;2023-02-10T06:46:09;78.40;;;29.03;;
18997;SDS011;9632;51.018;4.284;2023-02-10T06:48:35;75.07;;;28.27;;
18997;SDS011;9632;51.018;4.284;2023-02-10T06:51:01;76.50;;;29.43;;
18997;SDS011;9632;51.018;4.284;2023-02-10T06:53:26;72.93;;;28.93;;
18997;SDS011;9632;51.018;4.284;2023-02-10T06:55:55;71.80;;;27.50;;
18997;SDS011;9632;51.018;4.284;2023-02-10T06:58:21;77.10;;;28.93;;
18997;SDS011;9632;51.018;4.284;2023-02-10T07:00:47;77.70;;;29.20;;
18997;SDS011;9632;51.018;4.284;2023-02-10T07:03:13;72.33;;;27.00;;
18997;SDS011;9632;51.018;4.284;2023-02-10T07:05:39;75.50;;;29.83;;
18997;SDS011;9632;51.018;4.284;2023-02-10T07:08:05;82.90;;;29.27;;
18997;SDS011;9632;51.018;4.284;2023-02-10T07:10:32;78.50;;;29.53;;
18997;SDS011;9632;51.018;4.284;2023-02-10T07:12:58;76.47;;;29.30;;
18997;SDS011;9632;51.018;4.284;2023-02-10T07:15:24;70.53;;;28.47;;
18997;SDS011;9632;51.018;4.284;2023-02-10T07:17:50;73.30;;;29.60;;
18997;SDS011;9632;51.018;4.284;2023-02-10T07:20:20;76.37;;;30.13;;
18997;SDS011;9632;51.018;4.284;2023-02-10T07:22:46;79.50;;;30.53;;
18997;SDS011;9632;51.018;4.284;2023-02-10T07:25:12;77.63;;;31.23;;
18997;SDS011;9632;51.018;4.284;2023-02-10T07:27:38;81.83;;;32.83;;
18997;SDS011;9632;51.018;4.284;2023-02-10T07:30:03;84.67;;;34.13;;
18997;SDS011;9632;51.018;4.284;2023-02-10T07:32:29;78.57;;;32.77;;
18997;SDS011;9632;51.018;4.284;2023-02-10T07:34:55;86.23;;;34.17;;
18997;SDS011;9632;51.018;4.284;2023-02-10T07:37:21;82.30;;;33.90;;
18997;SDS011;9632;51.018;4.284;2023-02-10T07:39:47;82.10;;;34.33;;
18997;SDS011;9632;51.018;4.284;2023-02-10T07:42:13;84.63;;;35.93;;
18997;SDS011;9632;51.018;4.284;2023-02-10T07:48:00;95.80;;;36.03;;
18997;SDS011;9632;51.018;4.284;2023-02-10T07:50:26;86.40;;;35.47;;
18997;SDS011;9632;51.018;4.284;2023-02-10T07:52:52;79.80;;;33.10;;
18997;SDS011;9632;51.018;4.284;2023-02-10T07:55:17;81.83;;;34.17;;
18997;SDS011;9632;51.018;4.284;2023-02-10T07:57:44;78.13;;;31.97;;
18997;SDS011;9632;51.018;4.284;2023-02-10T08:00:10;79.40;;;31.77;;
18997;SDS011;9632;51.018;4.284;2023-02-10T08:02:37;79.17;;;30.93;;
18997;SDS011;9632;51.018;4.284;2023-02-10T08:05:03;75.73;;;30.53;;
18997;SDS011;9632;51.018;4.284;2023-02-10T08:07:29;77.43;;;32.23;;
18997;SDS011;9632;51.018;4.284;2023-02-10T08:09:54;80.47;;;32.93;;
18997;SDS011;9632;51.018;4.284;2023-02-10T08:12:20;77.80;;;31.73;;
18997;SDS011;9632;51.018;4.284;2023-02-10T08:14:46;79.57;;;32.70;;
18997;SDS011;9632;51.018;4.284;2023-02-10T08:17:11;81.43;;;33.63;;
18997;SDS011;9632;51.018;4.284;2023-02-10T08:19:37;82.77;;;33.30;;
18997;SDS011;9632;51.018;4.284;2023-02-10T08:22:03;77.43;;;33.77;;
18997;SDS011;9632;51.018;4.284;2023-02-10T08:24:30;86.47;;;36.37;;
18997;SDS011;9632;51.018;4.284;2023-02-10T08:26:55;90.17;;;37.00;;
18997;SDS011;9632;51.018;4.284;2023-02-10T08:29:21;78.67;;;34.93;;
18997;SDS011;9632;51.018;4.284;2023-02-10T08:31:50;80.10;;;35.07;;
18997;SDS011;9632;51.018;4.284;2023-02-10T08:34:18;101.30;;;41.40;;
18997;SDS011;9632;51.018;4.284;2023-02-10T08:36:45;108.23;;;43.57;;
18997;SDS011;9632;51.018;4.284;2023-02-10T08:39:11;115.30;;;45.23;;
18997;SDS011;9632;51.018;4.284;2023-02-10T08:41:38;114.70;;;46.63;;
18997;SDS011;9632;51.018;4.284;2023-02-10T08:44:04;114.47;;;46.40;;
18997;SDS011;9632;51.018;4.284;2023-02-10T08:46:30;132.13;;;50.70;;
18997;SDS011;9632;51.018;4.284;2023-02-10T08:48:55;126.37;;;49.63;;
18997;SDS011;9632;51.018;4.284;2023-02-10T08:51:21;135.13;;;51.37;;
18997;SDS011;9632;51.018;4.284;2023-02-10T08:53:47;138.03;;;52.43;;
18997;SDS011;9632;51.018;4.284;2023-02-10T08:56:15;137.50;;;51.00;;
18997;SDS011;9632;51.018;4.284;2023-02-10T08:58:41;136.93;;;52.13;;
18997;SDS011;9632;51.018;4.284;2023-02-10T09:01:11;136.07;;;51.42;;
18997;SDS011;9632;51.018;4.284;2023-02-10T09:03:39;146.23;;;52.87;;
18997;SDS011;9632;51.018;4.284;2023-02-10T09:06:05;136.37;;;51.30;;
18997;SDS011;9632;51.018;4.284;2023-02-10T09:08:37;148.80;;;52.60;;
18997;SDS011;9632;51.018;4.284;2023-02-10T09:11:04;156.45;;;54.58;;
18997;SDS011;9632;51.018;4.284;2023-02-10T09:13:30;146.35;;;52.60;;
18997;SDS011;9632;51.018;4.284;2023-02-10T09:15:56;159.50;;;54.33;;
18997;SDS011;9632;51.018;4.284;2023-02-10T09:18:21;156.52;;;52.67;;
18997;SDS011;9632;51.018;4.284;2023-02-10T09:20:47;147.20;;;51.73;;
18997;SDS011;9632;51.018;4.284;2023-02-10T09:23:12;151.23;;;52.83;;
18997;SDS011;9632;51.018;4.284;2023-02-10T09:25:38;140.30;;;51.67;;
18997;SDS011;9632;51.018;4.284;2023-02-10T09:28:04;171.73;;;54.83;;
18997;SDS011;9632;51.018;4.284;2023-02-10T09:30:29;165.77;;;55.80;;
18997;SDS011;9632;51.018;4.284;2023-02-10T09:32:55;145.13;;;51.87;;
18997;SDS011;9632;51.018;4.284;2023-02-10T09:35:21;147.90;;;53.60;;
18997;SDS011;9632;51.018;4.284;2023-02-10T09:37:46;163.43;;;52.35;;
18997;SDS011;9632;51.018;4.284;2023-02-10T09:40:29;154.50;;;51.65;;
18997;SDS011;9632;51.018;4.284;2023-02-10T09:43:02;151.70;;;52.75;;
18997;SDS011;9632;51.018;4.284;2023-02-10T09:45:51;137.48;;;51.00;;
18997;SDS011;9632;51.018;4.284;2023-02-10T09:48:40;138.17;;;50.63;;
18997;SDS011;9632;51.018;4.284;2023-02-10T09:51:37;153.27;;;52.45;;
18997;SDS011;9632;51.018;4.284;2023-02-10T09:54:27;163.82;;;52.88;;
18997;SDS011;9632;51.018;4.284;2023-02-10T09:56:56;153.73;;;51.05;;
18997;SDS011;9632;51.018;4.284;2023-02-10T09:59:33;149.07;;;52.85;;
18997;SDS011;9632;51.018;4.284;2023-02-10T10:02:04;155.15;;;53.35;;
18997;SDS011;9632;51.018;4.284;2023-02-10T10:04:40;151.45;;;54.58;;
18997;SDS011;9632;51.018;4.284;2023-02-10T10:09:41;146.93;;;51.53;;
18997;SDS011;9632;51.018;4.284;2023-02-10T10:12:16;167.55;;;56.03;;
18997;SDS011;9632;51.018;4.284;2023-02-10T10:14:43;169.50;;;55.40;;
18997;SDS011;9632;51.018;4.284;2023-02-10T10:33:42;149.15;;;52.67;;
18997;SDS011;9632;51.018;4.284;2023-02-10T10:36:19;161.23;;;52.08;;
18997;SDS011;9632;51.018;4.284;2023-02-10T10:38:49;153.30;;;51.58;;
18997;SDS011;9632;51.018;4.284;2023-02-10T10:41:17;137.20;;;49.65;;
18997;SDS011;9632;51.018;4.284;2023-02-10T10:43:51;148.98;;;51.30;;
18997;SDS011;9632;51.018;4.284;2023-02-10T10:46:23;139.52;;;48.88;;
18997;SDS011;9632;51.018;4.284;2023-02-10T10:48:53;135.88;;;48.50;;
18997;SDS011;9632;51.018;4.284;2023-02-10T10:51:19;140.02;;;47.65;;
18997;SDS011;9632;51.018;4.284;2023-02-10T10:53:47;142.45;;;46.95;;
18997;SDS011;9632;51.018;4.284;2023-02-10T10:56:20;131.68;;;45.33;;
18997;SDS011;9632;51.018;4.284;2023-02-10T11:01:44;128.88;;;45.45;;
18997;SDS011;9632;51.018;4.284;2023-02-10T11:04:12;128.77;;;45.67;;
18997;SDS011;9632;51.018;4.284;2023-02-10T11:06:40;134.05;;;45.03;;
18997;SDS011;9632;51.018;4.284;2023-02-10T11:09:20;114.40;;;41.70;;
18997;SDS011;9632;51.018;4.284;2023-02-10T11:11:49;128.07;;;43.88;;
18997;SDS011;9632;51.018;4.284;2023-02-10T11:14:18;131.90;;;43.60;;
18997;SDS011;9632;51.018;4.284;2023-02-10T11:16:56;145.45;;;44.70;;
18997;SDS011;9632;51.018;4.284;2023-02-10T11:19:33;135.10;;;44.45;;
18997;SDS011;9632;51.018;4.284;2023-02-10T11:21:59;138.63;;;46.33;;
18997;SDS011;9632;51.018;4.284;2023-02-10T11:24:30;113.32;;;42.17;;
18997;SDS011;9632;51.018;4.284;2023-02-10T11:27:00;110.05;;;39.35;;
18997;SDS011;9632;51.018;4.284;2023-02-10T11:32:18;101.93;;;33.20;;
18997;SDS011;9632;51.018;4.284;2023-02-10T11:34:45;90.45;;;31.83;;
18997;SDS011;9632;51.018;4.284;2023-02-10T11:37:23;83.20;;;30.95;;
18997;SDS011;9632;51.018;4.284;2023-02-10T11:39:52;90.57;;;31.00;;
18997;SDS011;9632;51.018;4.284;2023-02-10T11:42:21;92.10;;;30.75;;
18997;SDS011;9632;51.018;4.284;2023-02-10T11:47:25;97.15;;;31.92;;
18997;SDS011;9632;51.018;4.284;2023-02-10T11:49:52;101.45;;;33.42;;
18997;SDS011;9632;51.018;4.284;2023-02-10T11:52:19;103.47;;;33.00;;
18997;SDS011;9632;51.018;4.284;2023-02-10T11:54:47;94.82;;;32.53;;
18997;SDS011;9632;51.018;4.284;2023-02-10T12:03:35;90.88;;;30.65;;
18997;SDS011;9632;51.018;4.284;2023-02-10T12:06:33;88.45;;;29.85;;
18997;SDS011;9632;51.018;4.284;2023-02-10T12:09:16;90.28;;;30.58;;
18997;SDS011;9632;51.018;4.284;2023-02-10T12:20:15;81.10;;;29.08;;
18997;SDS011;9632;51.018;4.284;2023-02-10T12:36:14;75.25;;;28.83;;
18997;SDS011;9632;51.018;4.284;2023-02-10T12:52:18;93.88;;;31.65;;
18997;SDS011;9632;51.018;4.284;2023-02-10T12:54:53;89.07;;;30.55;;
18997;SDS011;9632;51.018;4.284;2023-02-10T13:01:23;100.32;;;32.40;;
18997;SDS011;9632;51.018;4.284;2023-02-10T13:04:02;97.97;;;31.48;;
18997;SDS011;9632;51.018;4.284;2023-02-10T13:06:33;103.85;;;32.72;;
18997;SDS011;9632;51.018;4.284;2023-02-10T13:12:14;105.88;;;33.47;;
18997;SDS011;9632;51.018;4.284;2023-02-10T13:18:21;97.15;;;31.25;;
18997;SDS011;9632;51.018;4.284;2023-02-10T13:24:17;106.18;;;32.97;;
18997;SDS011;9632;51.018;4.284;2023-02-10T13:52:51;112.25;;;33.72;;
18997;SDS011;9632;51.018;4.284;2023-02-10T13:57:56;120.20;;;35.83;;
18997;SDS011;9632;51.018;4.284;2023-02-10T14:00:46;102.93;;;33.47;;
18997;SDS011;9632;51.018;4.284;2023-02-10T14:13:57;109.18;;;33.97;;
18997;SDS011;9632;51.018;4.284;2023-02-10T14:16:28;121.72;;;35.88;;
18997;SDS011;9632;51.018;4.284;2023-02-10T14:19:00;113.55;;;35.90;;
18997;SDS011;9632;51.018;4.284;2023-02-10T14:21:40;99.40;;;33.53;;
18997;SDS011;9632;51.018;4.284;2023-02-10T14:24:14;100.75;;;32.63;;
18997;SDS011;9632;51.018;4.284;2023-02-10T14:40:24;108.32;;;35.70;;
18997;SDS011;9632;51.018;4.284;2023-02-10T14:42:52;102.95;;;33.75;;
18997;SDS011;9632;51.018;4.284;2023-02-10T14:45:19;101.00;;;33.88;;
18997;SDS011;9632;51.018;4.284;2023-02-10T14:47:51;95.93;;;33.22;;
18997;SDS011;9632;51.018;4.284;2023-02-10T14:50:29;90.70;;;32.65;;
18997;SDS011;9632;51.018;4.284;2023-02-10T14:52:57;90.10;;;31.55;;
18997;SDS011;9632;51.018;4.284;2023-02-10T14:55:25;91.43;;;32.03;;
18997;SDS011;9632;51.018;4.284;2023-02-10T14:58:06;82.95;;;30.77;;
18997;SDS011;9632;51.018;4.284;2023-02-10T15:00:39;75.13;;;29.23;;
18997;SDS011;9632;51.018;4.284;2023-02-10T15:03:09;74.75;;;29.48;;
18997;SDS011;9632;51.018;4.284;2023-02-10T15:05:45;77.75;;;29.05;;
18997;SDS011;9632;51.018;4.284;2023-02-10T15:08:15;78.30;;;30.52;;
18997;SDS011;9632;51.018;4.284;2023-02-10T15:10:45;77.72;;;30.15;;
18997;SDS011;9632;51.018;4.284;2023-02-10T15:13:15;85.55;;;32.05;;
18997;SDS011;9632;51.018;4.284;2023-02-10T15:15:45;84.70;;;31.30;;
18997;SDS011;9632;51.018;4.284;2023-02-10T15:18:21;81.38;;;30.13;;
18997;SDS011;9632;51.018;4.284;2023-02-10T15:20:55;79.25;;;29.30;;
18997;SDS011;9632;51.018;4.284;2023-02-10T15:26:44;70.45;;;28.48;;
18997;SDS011;9632;51.018;4.284;2023-02-10T15:29:11;72.30;;;28.58;;
18997;SDS011;9632;51.018;4.284;2023-02-10T15:31:39;71.50;;;27.63;;
18997;SDS011;9632;51.018;4.284;2023-02-10T15:34:17;84.57;;;29.40;;
18997;SDS011;9632;51.018;4.284;2023-02-10T15:36:50;82.15;;;30.20;;
18997;SDS011;9632;51.018;4.284;2023-02-10T15:39:38;70.20;;;27.77;;
18997;SDS011;9632;51.018;4.284;2023-02-10T15:46:04;70.43;;;28.88;;
18997;SDS011;9632;51.018;4.284;2023-02-10T15:48:31;73.97;;;28.45;;
18997;SDS011;9632;51.018;4.284;2023-02-10T15:50:57;62.97;;;25.95;;
18997;SDS011;9632;51.018;4.284;2023-02-10T15:53:24;68.25;;;27.30;;
18997;SDS011;9632;51.018;4.284;2023-02-10T15:58:29;73.28;;;28.20;;
18997;SDS011;9632;51.018;4.284;2023-02-10T16:00:55;75.53;;;29.65;;
18997;SDS011;9632;51.018;4.284;2023-02-10T16:30:04;68.88;;;27.50;;
18997;SDS011;9632;51.018;4.284;2023-02-10T18:30:45;98.88;;;38.25;;
18997;SDS011;9632;51.018;4.284;2023-02-10T18:33:12;84.47;;;34.10;;
18997;SDS011;9632;51.018;4.284;2023-02-10T18:35:38;85.65;;;34.05;;
18997;SDS011;9632;51.018;4.284;2023-02-10T18:38:04;87.45;;;34.60;;
18997;SDS011;9632;51.018;4.284;2023-02-10T18:40:32;93.88;;;35.60;;
18997;SDS011;9632;51.018;4.284;2023-02-10T18:43:04;83.38;;;32.72;;
18997;SDS011;9632;51.018;4.284;2023-02-10T19:05:17;83.95;;;32.53;;
18997;SDS011;9632;51.018;4.284;2023-02-10T19:14:09;91.50;;;34.58;;
18997;SDS011;9632;51.018;4.284;2023-02-10T19:16:34;81.60;;;32.65;;
18997;SDS011;9632;51.018;4.284;2023-02-10T19:22:22;74.43;;;30.10;;
18997;SDS011;9632;51.018;4.284;2023-02-10T19:24:47;80.53;;;31.00;;
18997;SDS011;9632;51.018;4.284;2023-02-10T19:30:50;68.80;;;28.45;;
18997;SDS011;9632;51.018;4.284;2023-02-10T19:36:38;68.82;;;27.83;;
18997;SDS011;9632;51.018;4.284;2023-02-10T19:46:00;75.95;;;29.17;;
18997;SDS011;9632;51.018;4.284;2023-02-10T19:51:53;67.88;;;26.55;;
18997;SDS011;9632;51.018;4.284;2023-02-10T19:57:54;60.80;;;24.67;;
18997;SDS011;9632;51.018;4.284;2023-02-10T20:03:48;61.22;;;22.92;;
18997;SDS011;9632;51.018;4.284;2023-02-10T20:45:16;44.67;;;18.92;;
18997;SDS011;9632;51.018;4.284;2023-02-10T20:47:43;42.08;;;17.85;;
18997;SDS011;9632;51.018;4.284;2023-02-10T20:50:08;48.40;;;19.50;;
18997;SDS011;9632;51.018;4.284;2023-02-10T20:52:35;46.55;;;19.30;;
18997;SDS011;9632;51.018;4.284;2023-02-10T20:55:01;43.78;;;19.20;;
18997;SDS011;9632;51.018;4.284;2023-02-10T21:00:17;47.80;;;18.92;;
18997;SDS011;9632;51.018;4.284;2023-02-10T21:02:42;50.72;;;17.80;;
18997;SDS011;9632;51.018;4.284;2023-02-10T21:07:56;37.60;;;16.63;;
18997;SDS011;9632;51.018;4.284;2023-02-10T21:10:22;36.90;;;16.80;;
18997;SDS011;9632;51.018;4.284;2023-02-10T21:12:47;38.45;;;16.15;;
18997;SDS011;9632;51.018;4.284;2023-02-10T21:15:13;34.78;;;16.33;;
18997;SDS011;9632;51.018;4.284;2023-02-10T21:17:39;38.55;;;16.63;;
18997;SDS011;9632;51.018;4.284;2023-02-10T21:20:05;34.30;;;15.05;;
18997;SDS011;9632;51.018;4.284;2023-02-10T21:22:31;35.00;;;14.63;;
18997;SDS011;9632;51.018;4.284;2023-02-10T21:28:02;32.70;;;14.13;;
18997;SDS011;9632;51.018;4.284;2023-02-10T21:30:28;31.30;;;13.68;;
18997;SDS011;9632;51.018;4.284;2023-02-10T21:32:55;31.00;;;13.45;;
18997;SDS011;9632;51.018;4.284;2023-02-10T21:35:21;31.95;;;13.95;;
18997;SDS011;9632;51.018;4.284;2023-02-10T21:37:47;31.38;;;12.95;;
18997;SDS011;9632;51.018;4.284;2023-02-10T21:40:13;29.50;;;12.82;;
18997;SDS011;9632;51.018;4.284;2023-02-10T21:42:39;26.98;;;11.43;;
18997;SDS011;9632;51.018;4.284;2023-02-10T21:47:58;25.80;;;11.57;;
18997;SDS011;9632;51.018;4.284;2023-02-10T21:56:33;27.92;;;11.77;;